createdAt,value
2017-05-27T00:01:24.669Z,22.40
2017-05-27T00:03:53.789Z,21.12
2017-05-27T00:06:22.889Z,21.46
2017-05-27T00:08:52.016Z,22.18
2017-05-27T00:11:21.121Z,22.76
2017-05-27T00:13:50.242Z,19.58
2017-05-27T00:16:19.331Z,21.40
2017-05-27T00:18:48.460Z,19.50
2017-05-27T00:21:17.559Z,22.54
2017-05-27T00:23:46.679Z,19.10
2017-05-27T00:26:15.809Z,20.70
2017-05-27T00:28:44.899Z,20.72
2017-05-27T00:31:14.029Z,20.46
2017-05-27T00:33:43.147Z,19.52
2017-05-27T00:36:12.276Z,23.02
2017-05-27T00:38:41.381Z,18.82
2017-05-27T00:41:10.619Z,19.28
2017-05-27T00:43:39.717Z,20.82
2017-05-27T00:46:09.524Z,18.74
2017-05-27T00:48:38.621Z,19.96
2017-05-27T00:51:07.758Z,19.02
2017-05-27T00:53:36.873Z,19.84
2017-05-27T00:56:06.000Z,18.70
2017-05-27T00:58:35.097Z,20.96
2017-05-27T01:01:04.191Z,21.10
2017-05-27T01:03:32.542Z,16.82
2017-05-27T01:06:01.640Z,17.08
2017-05-27T01:08:30.785Z,17.18
2017-05-27T01:10:59.873Z,18.04
2017-05-27T01:13:29.009Z,16.92
2017-05-27T01:15:58.109Z,20.60
2017-05-27T01:18:27.233Z,16.78
2017-05-27T01:20:57.044Z,17.58
2017-05-27T01:23:26.182Z,18.78
2017-05-27T01:25:55.280Z,17.74
2017-05-27T01:28:24.378Z,19.08
2017-05-27T01:30:53.491Z,17.60
2017-05-27T01:33:22.593Z,17.98
2017-05-27T01:35:51.708Z,17.56
2017-05-27T01:38:20.804Z,15.48
2017-05-27T01:40:49.924Z,15.86
2017-05-27T01:43:19.023Z,16.88
2017-05-27T01:45:48.147Z,14.92
2017-05-27T01:48:17.254Z,16.18
2017-05-27T01:50:46.346Z,14.84
2017-05-27T01:53:15.457Z,14.52
2017-05-27T01:55:44.553Z,15.68
2017-05-27T01:58:13.754Z,17.32
2017-05-27T02:00:42.882Z,16.10
2017-05-27T02:03:11.986Z,17.52
2017-05-27T02:05:41.112Z,17.00
2017-05-27T02:08:10.216Z,15.40
2017-05-27T02:10:39.345Z,16.64
2017-05-27T02:13:08.444Z,16.32
2017-05-27T02:15:37.556Z,17.60
2017-05-27T02:18:06.660Z,16.78
2017-05-27T02:20:35.796Z,15.86
2017-05-27T02:23:04.888Z,16.84
2017-05-27T02:25:33.984Z,15.18
2017-05-27T02:28:02.365Z,15.76
2017-05-27T02:30:31.562Z,16.78
2017-05-27T02:33:00.690Z,19.80
2017-05-27T02:35:29.854Z,17.80
2017-05-27T02:37:59.230Z,19.88
2017-05-27T02:40:28.292Z,16.86
2017-05-27T02:42:57.389Z,17.26
2017-05-27T02:45:26.552Z,18.48
2017-05-27T02:47:55.652Z,19.34
2017-05-27T02:50:24.834Z,16.80
2017-05-27T02:52:53.872Z,15.76
2017-05-27T02:55:23.001Z,16.74
2017-05-27T02:57:52.200Z,19.10
2017-05-27T03:00:21.312Z,16.64
2017-05-27T03:02:50.437Z,17.02
2017-05-27T03:05:19.504Z,19.28
2017-05-27T03:07:48.623Z,18.16
2017-05-27T03:10:17.723Z,17.40
2017-05-27T03:12:46.862Z,20.42
2017-05-27T03:15:15.945Z,20.28
2017-05-27T03:17:45.033Z,17.12
2017-05-27T03:20:14.179Z,16.96
2017-05-27T03:22:43.279Z,19.34
2017-05-27T03:25:12.400Z,17.92
2017-05-27T03:27:41.489Z,18.48
2017-05-27T03:30:09.850Z,17.76
2017-05-27T03:32:38.932Z,18.38
2017-05-27T03:35:08.057Z,20.90
2017-05-27T03:37:37.268Z,15.62
2017-05-27T03:40:06.360Z,17.30
2017-05-27T03:42:35.481Z,17.04
2017-05-27T03:45:04.652Z,19.00
2017-05-27T03:47:33.779Z,16.64
2017-05-27T03:50:02.878Z,19.98
2017-05-27T03:52:32.006Z,17.14
2017-05-27T03:55:01.201Z,19.00
2017-05-27T03:57:30.291Z,18.58
2017-05-27T03:59:59.413Z,15.44
2017-05-27T04:02:28.612Z,15.60
2017-05-27T04:04:57.745Z,17.54
2017-05-27T04:07:26.834Z,18.82
2017-05-27T04:09:55.932Z,15.46
2017-05-27T04:12:25.108Z,17.62
2017-05-27T04:14:54.201Z,16.64
2017-05-27T04:17:23.329Z,15.98
2017-05-27T04:19:52.482Z,17.70
2017-05-27T04:22:21.667Z,16.72
2017-05-27T04:24:50.756Z,16.48
2017-05-27T04:27:19.893Z,17.54
2017-05-27T04:29:48.992Z,21.24
2017-05-27T04:32:18.052Z,17.10
2017-05-27T04:34:47.168Z,18.56
2017-05-27T04:37:15.507Z,14.78
2017-05-27T04:39:44.639Z,16.26
2017-05-27T04:42:13.748Z,14.68
2017-05-27T04:44:42.856Z,14.82
2017-05-27T04:47:12.018Z,15.00
2017-05-27T04:49:41.145Z,14.08
2017-05-27T04:52:10.241Z,14.78
2017-05-27T04:54:39.361Z,16.98
2017-05-27T04:57:08.477Z,14.60
2017-05-27T04:59:37.607Z,16.74
2017-05-27T05:02:06.708Z,14.36
2017-05-27T05:04:35.825Z,14.56
2017-05-27T05:07:04.954Z,13.92
2017-05-27T05:09:34.057Z,14.70
2017-05-27T05:12:03.173Z,13.30
2017-05-27T05:14:32.307Z,14.10
2017-05-27T05:17:01.460Z,13.02
2017-05-27T05:19:30.551Z,13.46
2017-05-27T05:21:59.645Z,11.82
2017-05-27T05:24:28.760Z,14.14
2017-05-27T05:26:57.868Z,13.28
2017-05-27T05:29:26.217Z,15.42
2017-05-27T05:31:55.313Z,12.90
2017-05-27T05:34:24.454Z,13.88
2017-05-27T05:36:53.547Z,12.96
2017-05-27T05:39:22.660Z,13.28
2017-05-27T05:41:51.768Z,12.74
2017-05-27T05:44:20.869Z,15.08
2017-05-27T05:46:50.022Z,12.26
2017-05-27T05:49:19.122Z,12.04
2017-05-27T05:51:48.219Z,11.76
2017-05-27T05:54:16.581Z,12.02
2017-05-27T05:56:45.673Z,12.32
2017-05-27T05:59:14.791Z,11.96
2017-05-27T06:01:43.904Z,11.56
2017-05-27T06:04:13.053Z,11.78
2017-05-27T06:06:42.224Z,11.18
2017-05-27T06:09:11.317Z,11.34
2017-05-27T06:11:40.437Z,10.78
2017-05-27T06:14:09.682Z,11.10
2017-05-27T06:16:38.780Z,12.20
2017-05-27T06:19:07.925Z,11.80
2017-05-27T06:21:37.022Z,12.00
2017-05-27T06:24:06.109Z,11.18
2017-05-27T06:26:35.286Z,11.40
2017-05-27T06:29:04.369Z,11.32
2017-05-27T06:31:33.497Z,11.30
2017-05-27T06:34:02.637Z,11.46
2017-05-27T06:36:31.731Z,10.32
2017-05-27T06:39:00.847Z,10.14
2017-05-27T06:41:29.933Z,10.88
2017-05-27T06:43:59.048Z,10.12
2017-05-27T06:46:28.141Z,10.48
2017-05-27T06:48:57.253Z,8.60
2017-05-27T06:51:26.365Z,8.32
2017-05-27T06:53:55.450Z,9.82
2017-05-27T06:56:24.549Z,7.74
2017-05-27T06:58:53.686Z,8.40
2017-05-27T07:01:22.788Z,7.68
2017-05-27T07:03:51.882Z,7.76
2017-05-27T07:06:20.985Z,7.02
2017-05-27T07:08:50.089Z,7.48
2017-05-27T07:11:19.204Z,7.20
2017-05-27T07:13:48.325Z,7.68
2017-05-27T07:16:17.409Z,7.02
2017-05-27T07:18:46.530Z,7.20
2017-05-27T07:21:15.618Z,7.86
2017-05-27T07:23:44.723Z,6.84
2017-05-27T07:26:13.833Z,5.90
2017-05-27T07:28:42.933Z,6.60
2017-05-27T07:31:12.028Z,5.94
2017-05-27T07:33:41.154Z,5.48
2017-05-27T07:36:10.272Z,6.26
2017-05-27T07:38:39.370Z,6.02
2017-05-27T07:41:08.491Z,5.90
2017-05-27T07:43:37.576Z,6.16
2017-05-27T07:46:06.680Z,5.70
2017-05-27T07:48:35.770Z,5.46
2017-05-27T07:51:04.878Z,7.06
2017-05-27T07:53:33.962Z,5.56
2017-05-27T07:56:03.084Z,5.12
2017-05-27T07:58:32.178Z,5.76
2017-05-27T08:01:01.293Z,9.54
2017-05-27T08:03:30.373Z,6.40
2017-05-27T08:05:59.734Z,5.34
2017-05-27T08:08:28.809Z,5.08
2017-05-27T08:10:57.892Z,5.02
2017-05-27T08:13:27.097Z,5.36
2017-05-27T08:15:56.189Z,5.68
2017-05-27T08:18:25.302Z,4.72
2017-05-27T08:20:54.389Z,4.28
2017-05-27T08:23:23.503Z,4.96
2017-05-27T08:25:52.577Z,4.92
2017-05-27T08:28:21.789Z,4.52
2017-05-27T08:30:50.905Z,5.16
2017-05-27T08:33:25.745Z,4.32
2017-05-27T08:35:54.834Z,4.34
2017-05-27T08:38:23.949Z,4.64
2017-05-27T08:40:52.310Z,4.54
2017-05-27T08:43:21.386Z,4.14
2017-05-27T08:45:50.517Z,5.06
2017-05-27T08:48:19.590Z,3.76
2017-05-27T08:50:48.679Z,3.92
2017-05-27T08:53:18.161Z,4.68
2017-05-27T08:55:47.250Z,4.98
2017-05-27T08:58:16.363Z,3.90
2017-05-27T09:00:45.484Z,4.12
2017-05-27T09:03:14.599Z,4.26
2017-05-27T09:05:43.696Z,4.60
2017-05-27T09:08:13.789Z,4.64
2017-05-27T09:10:43.685Z,5.06
2017-05-27T09:13:12.789Z,4.44
2017-05-27T09:15:41.925Z,4.40
2017-05-27T09:18:10.317Z,4.82
2017-05-27T09:20:39.536Z,3.98
2017-05-27T09:23:08.663Z,4.38
2017-05-27T09:25:38.472Z,3.94
2017-05-27T09:28:07.604Z,4.64
2017-05-27T09:30:35.970Z,4.06
2017-05-27T09:33:05.082Z,4.92
2017-05-27T09:35:34.226Z,3.70
2017-05-27T09:38:04.176Z,3.36
2017-05-27T09:40:33.328Z,3.36
2017-05-27T09:43:02.520Z,4.06
2017-05-27T09:45:31.702Z,4.20
2017-05-27T09:48:02.409Z,3.62
2017-05-27T09:50:31.573Z,3.30
2017-05-27T09:53:00.699Z,3.30
2017-05-27T09:55:30.143Z,3.26
2017-05-27T09:57:59.280Z,7.82
2017-05-27T10:00:28.421Z,7.06
2017-05-27T10:02:57.547Z,4.30
2017-05-27T10:05:27.086Z,4.48
2017-05-27T10:07:56.262Z,3.82
2017-05-27T10:10:26.289Z,4.56
2017-05-27T10:12:55.483Z,3.52
2017-05-27T10:15:23.913Z,3.44
2017-05-27T10:17:53.094Z,4.60
2017-05-27T10:20:22.253Z,3.66
2017-05-27T10:22:52.235Z,5.92
2017-05-27T10:25:21.433Z,3.88
2017-05-27T10:27:50.541Z,3.70
2017-05-27T10:30:19.733Z,3.80
2017-05-27T10:32:48.861Z,6.44
2017-05-27T10:35:18.278Z,3.64
2017-05-27T10:37:47.353Z,3.70
2017-05-27T10:40:15.741Z,3.56
2017-05-27T10:42:44.856Z,3.10
2017-05-27T10:45:13.977Z,3.38
2017-05-27T10:47:43.231Z,3.00
2017-05-27T10:50:12.345Z,3.40
2017-05-27T10:52:41.627Z,3.66
2017-05-27T10:55:10.788Z,3.70
2017-05-27T10:57:39.904Z,3.32
2017-05-27T11:00:09.089Z,3.46
2017-05-27T11:02:38.769Z,3.38
2017-05-27T11:05:08.525Z,3.74
2017-05-27T11:07:37.817Z,3.50
2017-05-27T11:10:07.011Z,4.18
2017-05-27T11:12:36.158Z,3.24
2017-05-27T11:15:05.648Z,3.54
2017-05-27T11:17:34.755Z,3.44
2017-05-27T11:20:04.728Z,3.44
2017-05-27T11:22:33.933Z,3.42
2017-05-27T11:25:03.393Z,3.98
2017-05-27T11:27:33.400Z,3.82
2017-05-27T11:30:01.770Z,3.72
2017-05-27T11:32:31.142Z,3.10
2017-05-27T11:35:00.282Z,3.10
2017-05-27T11:37:28.649Z,3.10
2017-05-27T11:39:57.823Z,2.88
2017-05-27T11:42:27.834Z,3.08
2017-05-27T11:44:57.037Z,4.24
2017-05-27T11:47:26.189Z,2.80
2017-05-27T11:49:56.360Z,3.04
2017-05-27T11:52:26.410Z,3.36
2017-05-27T11:54:55.544Z,2.92
2017-05-27T11:57:25.070Z,3.00
2017-05-27T11:59:54.169Z,3.16
2017-05-27T12:02:23.435Z,3.34
2017-05-27T12:04:52.557Z,2.76
2017-05-27T12:07:21.742Z,2.80
2017-05-27T12:09:52.645Z,2.70
2017-05-27T12:12:21.809Z,4.10
2017-05-27T12:14:51.002Z,3.16
2017-05-27T12:17:19.395Z,2.92
2017-05-27T12:19:48.525Z,2.44
2017-05-27T12:22:17.751Z,3.00
2017-05-27T12:24:46.938Z,2.46
2017-05-27T12:27:15.354Z,2.30
2017-05-27T12:29:44.464Z,2.20
2017-05-27T12:32:13.979Z,4.90
2017-05-27T12:34:42.361Z,2.42
2017-05-27T12:37:11.550Z,3.14
2017-05-27T12:39:40.693Z,2.26
2017-05-27T12:42:10.101Z,2.50
2017-05-27T12:44:39.197Z,4.08
2017-05-27T12:47:08.274Z,1.98
2017-05-27T12:49:37.394Z,4.36
2017-05-27T12:52:06.570Z,2.70
2017-05-27T12:54:35.642Z,2.42
2017-05-27T12:57:04.759Z,2.08
2017-05-27T12:59:33.836Z,2.40
2017-05-27T13:02:02.948Z,2.04
2017-05-27T13:04:32.047Z,2.34
2017-05-27T13:07:01.385Z,2.42
2017-05-27T13:09:30.481Z,4.12
2017-05-27T13:11:59.570Z,2.50
2017-05-27T13:14:28.712Z,2.94
2017-05-27T13:16:57.127Z,2.30
2017-05-27T13:19:26.630Z,2.20
2017-05-27T13:21:56.215Z,2.72
2017-05-27T13:24:25.288Z,1.94
2017-05-27T13:26:54.392Z,1.90
2017-05-27T13:29:23.480Z,2.86
2017-05-27T13:31:52.600Z,2.30
2017-05-27T13:34:22.329Z,2.82
2017-05-27T13:36:51.484Z,2.28
2017-05-27T13:39:20.577Z,2.42
2017-05-27T13:41:49.676Z,1.90
2017-05-27T13:44:18.785Z,2.26
2017-05-27T13:46:47.881Z,2.60
2017-05-27T13:49:17.003Z,2.72
2017-05-27T13:51:46.181Z,2.68
2017-05-27T13:54:15.344Z,2.50
2017-05-27T13:56:44.428Z,4.62
2017-05-27T13:59:12.843Z,2.64
2017-05-27T14:01:41.944Z,2.33
2017-05-27T14:04:11.028Z,3.00
2017-05-27T14:06:40.153Z,2.50
2017-05-27T14:09:09.237Z,2.24
2017-05-27T14:11:38.420Z,2.60
2017-05-27T14:14:08.013Z,3.04
2017-05-27T14:16:36.349Z,5.38
2017-05-27T14:19:05.465Z,5.06
2017-05-27T14:21:34.541Z,2.72
2017-05-27T14:24:03.668Z,2.26
2017-05-27T14:26:32.770Z,2.44
2017-05-27T14:29:01.889Z,2.46
2017-05-27T14:31:30.983Z,2.80
2017-05-27T14:34:00.069Z,4.28
2017-05-27T14:36:29.455Z,2.90
2017-05-27T14:38:58.546Z,2.54
2017-05-27T14:41:27.649Z,2.52
2017-05-27T14:43:56.757Z,2.66
2017-05-27T14:46:25.845Z,5.34
2017-05-27T14:48:54.968Z,2.70
2017-05-27T14:51:24.054Z,2.76
2017-05-27T14:53:53.173Z,2.22
2017-05-27T14:56:22.268Z,2.58
2017-05-27T14:58:51.373Z,3.00
2017-05-27T15:01:20.491Z,2.82
2017-05-27T15:03:49.580Z,2.66
2017-05-27T15:06:18.857Z,2.82
2017-05-27T15:08:47.952Z,3.46
2017-05-27T15:11:17.065Z,5.88
2017-05-27T15:13:46.174Z,3.52
2017-05-27T15:16:15.296Z,2.96
2017-05-27T15:18:44.493Z,3.10
2017-05-27T15:21:13.604Z,2.50
2017-05-27T15:23:42.759Z,3.58
2017-05-27T15:26:11.930Z,3.20
2017-05-27T15:28:40.355Z,2.80
2017-05-27T15:31:09.472Z,3.26
2017-05-27T15:33:38.625Z,3.94
2017-05-27T15:36:07.752Z,3.28
2017-05-27T15:38:36.127Z,3.46
2017-05-27T15:41:05.273Z,3.44
2017-05-27T15:43:33.693Z,4.06
2017-05-27T15:46:02.086Z,5.36
2017-05-27T15:48:31.442Z,3.62
2017-05-27T15:51:00.601Z,3.48
2017-05-27T15:53:29.728Z,4.52
2017-05-27T15:55:58.858Z,3.12
2017-05-27T15:58:27.584Z,4.54
2017-05-27T16:00:56.762Z,5.50
2017-05-27T16:03:25.957Z,4.92
2017-05-27T16:05:54.338Z,4.34
2017-05-27T16:08:23.507Z,3.64
2017-05-27T16:10:51.964Z,3.40
2017-05-27T16:13:21.106Z,3.12
2017-05-27T16:15:49.469Z,4.36
2017-05-27T16:18:19.440Z,3.18
2017-05-27T16:20:48.613Z,3.10
2017-05-27T16:23:22.641Z,3.36
2017-05-27T16:25:52.630Z,2.58
2017-05-27T16:28:25.002Z,2.80
2017-05-27T16:30:55.001Z,2.88
2017-05-27T16:33:24.878Z,3.78
2017-05-27T16:35:54.592Z,3.04
2017-05-27T16:38:23.746Z,3.00
2017-05-27T16:40:52.892Z,3.18
2017-05-27T16:43:22.078Z,4.08
2017-05-27T16:45:51.205Z,3.76
2017-05-27T16:48:20.335Z,3.38
2017-05-27T16:50:50.519Z,3.26
2017-05-27T16:53:19.654Z,3.12
2017-05-27T16:55:48.814Z,3.30
2017-05-27T16:58:17.925Z,3.68
2017-05-27T17:00:46.346Z,3.92
2017-05-27T17:03:16.188Z,3.44
2017-05-27T17:05:45.412Z,3.26
2017-05-27T17:08:14.530Z,3.34
2017-05-27T17:10:43.684Z,12.20
2017-05-27T17:13:12.837Z,101.20
2017-05-27T17:15:41.993Z,5.54
2017-05-27T17:18:11.077Z,3.48
2017-05-27T17:20:39.492Z,5.08
2017-05-27T17:23:08.636Z,3.78
2017-05-27T17:25:37.738Z,3.04
2017-05-27T17:28:06.924Z,3.50
2017-05-27T17:30:36.086Z,4.34
2017-05-27T17:33:05.211Z,3.28
2017-05-27T17:35:34.390Z,5.16
2017-05-27T17:38:02.805Z,15.84
2017-05-27T17:40:31.987Z,8.14
2017-05-27T17:43:01.111Z,5.00
2017-05-27T17:45:30.211Z,4.30
2017-05-27T17:47:59.405Z,3.88
2017-05-27T17:50:28.603Z,3.90
2017-05-27T17:52:57.695Z,2.96
2017-05-27T17:55:26.815Z,4.70
2017-05-27T17:57:55.893Z,3.56
2017-05-27T18:00:25.139Z,3.96
2017-05-27T18:02:54.837Z,3.76
2017-05-27T18:05:24.225Z,4.12
2017-05-27T18:07:53.302Z,3.86
2017-05-27T18:10:22.782Z,3.56
2017-05-27T18:12:51.853Z,3.28
2017-05-27T18:15:20.970Z,3.38
2017-05-27T18:17:50.065Z,3.06
2017-05-27T18:20:19.175Z,4.26
2017-05-27T18:22:48.263Z,4.72
2017-05-27T18:25:17.533Z,4.62
2017-05-27T18:27:46.630Z,2.90
2017-05-27T18:30:15.740Z,3.26
2017-05-27T18:32:44.841Z,2.70
2017-05-27T18:35:13.942Z,2.90
2017-05-27T18:37:43.048Z,3.52
2017-05-27T18:40:12.122Z,3.46
2017-05-27T18:42:41.225Z,3.50
2017-05-27T18:45:10.321Z,4.18
2017-05-27T18:47:39.498Z,3.40
2017-05-27T18:50:08.588Z,4.08
2017-05-27T18:52:37.700Z,3.36
2017-05-27T18:55:06.797Z,3.40
2017-05-27T18:57:35.896Z,3.34
2017-05-27T19:00:04.996Z,4.40
2017-05-27T19:02:34.077Z,3.50
2017-05-27T19:05:03.258Z,3.32
2017-05-27T19:07:32.288Z,3.12
2017-05-27T19:10:01.455Z,3.56
2017-05-27T19:12:30.581Z,3.58
2017-05-27T19:14:59.670Z,3.90
2017-05-27T19:17:28.792Z,3.46
2017-05-27T19:19:57.869Z,3.96
2017-05-27T19:22:26.982Z,4.98
2017-05-27T19:24:56.082Z,3.38
2017-05-27T19:27:24.588Z,3.58
2017-05-27T19:29:53.686Z,3.70
2017-05-27T19:32:22.809Z,3.36
2017-05-27T19:34:52.561Z,3.14
2017-05-27T19:37:21.649Z,3.70
2017-05-27T19:39:50.754Z,3.62
2017-05-27T19:42:19.843Z,3.50
2017-05-27T19:44:48.952Z,3.08
2017-05-27T19:47:18.053Z,3.48
2017-05-27T19:49:47.161Z,3.10
2017-05-27T19:52:16.243Z,5.92
2017-05-27T19:54:45.330Z,3.44
2017-05-27T19:57:14.416Z,3.22
2017-05-27T19:59:43.703Z,3.64
2017-05-27T20:02:12.850Z,3.34
2017-05-27T20:04:42.082Z,3.32
2017-05-27T20:07:11.261Z,4.52
2017-05-27T20:09:40.445Z,3.04
2017-05-27T20:12:10.147Z,2.92
2017-05-27T20:14:39.237Z,3.30
2017-05-27T20:17:08.357Z,4.78
2017-05-27T20:19:37.444Z,3.00
2017-05-27T20:22:06.525Z,3.34
2017-05-27T20:24:35.651Z,3.24
2017-05-27T20:27:05.477Z,3.74
2017-05-27T20:29:34.648Z,3.18
2017-05-27T20:32:03.737Z,3.72
2017-05-27T20:34:32.854Z,3.36
2017-05-27T20:37:01.946Z,4.02
2017-05-27T20:39:31.083Z,3.86
2017-05-27T20:42:00.189Z,3.04
2017-05-27T20:44:29.273Z,2.96
2017-05-27T20:46:58.415Z,3.80
2017-05-27T20:49:27.588Z,3.44
2017-05-27T20:51:58.384Z,4.04
2017-05-27T20:54:27.597Z,2.82
2017-05-27T20:56:56.709Z,2.86
2017-05-27T20:59:25.801Z,5.96
2017-05-27T21:01:54.939Z,3.82
2017-05-27T21:04:24.091Z,4.28
2017-05-27T21:06:53.194Z,3.22
2017-05-27T21:09:22.270Z,4.62
2017-05-27T21:11:51.468Z,3.30
2017-05-27T21:14:19.805Z,4.42
2017-05-27T21:16:48.899Z,3.42
2017-05-27T21:19:17.998Z,4.82
2017-05-27T21:21:47.093Z,3.36
2017-05-27T21:24:16.265Z,3.10
2017-05-27T21:26:45.369Z,5.78
2017-05-27T21:29:14.450Z,3.04
2017-05-27T21:31:43.568Z,3.60
2017-05-27T21:34:11.893Z,4.56
2017-05-27T21:36:40.981Z,4.58
2017-05-27T21:39:10.088Z,4.24
2017-05-27T21:41:39.212Z,3.18
2017-05-27T21:44:08.352Z,3.02
2017-05-27T21:46:37.462Z,3.26
2017-05-27T21:49:06.591Z,3.58
2017-05-27T21:51:35.682Z,2.92
2017-05-27T21:54:04.792Z,3.18
2017-05-27T21:56:33.888Z,7.06
2017-05-27T21:59:02.973Z,3.48
2017-05-27T22:01:32.057Z,2.86
2017-05-27T22:04:01.200Z,3.92
2017-05-27T22:06:30.367Z,4.72
2017-05-27T22:08:59.493Z,3.18
2017-05-27T22:11:28.605Z,5.02
2017-05-27T22:13:57.686Z,2.90
2017-05-27T22:16:27.206Z,3.26
2017-05-27T22:18:56.518Z,3.14
2017-05-27T22:21:25.601Z,2.98
2017-05-27T22:23:54.894Z,4.10
2017-05-27T22:26:23.993Z,4.24
2017-05-27T22:28:53.098Z,3.10
2017-05-27T22:31:22.600Z,3.32
2017-05-27T22:33:51.883Z,3.50
2017-05-27T22:36:20.982Z,2.92
2017-05-27T22:38:50.082Z,3.30
2017-05-27T22:41:20.237Z,3.04
2017-05-27T22:43:49.452Z,2.86
2017-05-27T22:46:18.566Z,2.88
2017-05-27T22:48:47.673Z,3.76
2017-05-27T22:51:17.239Z,2.72
2017-05-27T22:53:46.487Z,2.88
2017-05-27T22:56:15.664Z,2.90
2017-05-27T22:58:44.005Z,3.20
2017-05-27T23:01:13.104Z,3.18
2017-05-27T23:03:42.221Z,5.10
2017-05-27T23:06:11.315Z,3.44
2017-05-27T23:08:40.415Z,3.20
2017-05-27T23:11:09.506Z,4.02
2017-05-27T23:13:38.585Z,2.94
2017-05-27T23:16:07.676Z,2.54
2017-05-27T23:18:36.830Z,3.02
2017-05-27T23:21:05.934Z,2.72
2017-05-27T23:23:35.031Z,3.10
2017-05-27T23:26:04.140Z,2.84
2017-05-27T23:28:33.250Z,2.94
2017-05-27T23:31:02.334Z,3.38
2017-05-27T23:33:30.683Z,3.00
2017-05-27T23:35:59.757Z,2.94
2017-05-27T23:38:28.877Z,3.96
2017-05-27T23:40:58.837Z,3.42
2017-05-27T23:43:28.010Z,3.02
2017-05-27T23:45:57.155Z,3.28
2017-05-27T23:48:26.247Z,2.86
2017-05-27T23:50:55.353Z,3.22
2017-05-27T23:53:24.457Z,3.00
2017-05-27T23:55:53.544Z,3.74
2017-05-27T23:58:22.662Z,2.98
